Upper Mifflin, Pennsylvania
Current Conditions -  °F | °C
As of 1:56 AM on Thursday 27 Nov 2014 (Local Time) from KCXY Reporting Station
Overcast Overcast  
Wind Chill: 28°   Ceiling: 5000
Heat Index: 35°   Visibility: 10mi
Dew Point: 29°   Wind: 9mph
Humidity: 78%   Direction: 300°WNW
Pressure: 29.98"   Gusts: NA
Location:  40.183°N, 77.4166°W
Report Text: KCXY 270656Z AUTO 30008KT 10SM BKN050 OVC070 02/M02 A2998 RMK AO2 SLP158 T00171017
Loading
Personal Weather Stations






























Interactive Weather Map New forecast layout! Learn more

10-Day Weather Forecast

Advertisements
Track Severe Weather on mobile